sensor_id;sensor_type;location;lat;lon;timestamp;temperature;humidity
27633;DHT22;15046;50.930;13.334;2022-08-19T00:00:26;19.50;99.90
27633;DHT22;15046;50.930;13.334;2022-08-19T00:02:53;19.50;99.90
27633;DHT22;15046;50.930;13.334;2022-08-19T00:05:19;19.50;99.90
27633;DHT22;15046;50.930;13.334;2022-08-19T00:07:45;19.40;99.90
27633;DHT22;15046;50.930;13.334;2022-08-19T00:10:14;19.50;99.90
27633;DHT22;15046;50.930;13.334;2022-08-19T00:12:40;19.50;99.90
27633;DHT22;15046;50.930;13.334;2022-08-19T00:15:09;19.60;99.90
27633;DHT22;15046;50.930;13.334;2022-08-19T00:17:42;19.60;99.90
27633;DHT22;15046;50.930;13.334;2022-08-19T00:20:08;19.60;99.90
27633;DHT22;15046;50.930;13.334;2022-08-19T00:22:38;19.50;99.90
27633;DHT22;15046;50.930;13.334;2022-08-19T00:25:07;19.50;99.90
27633;DHT22;15046;50.930;13.334;2022-08-19T00:27:34;19.50;99.90
27633;DHT22;15046;50.930;13.334;2022-08-19T00:30:00;19.50;99.90
27633;DHT22;15046;50.930;13.334;2022-08-19T00:32:27;19.50;99.90
27633;DHT22;15046;50.930;13.334;2022-08-19T00:34:53;19.50;99.90
27633;DHT22;15046;50.930;13.334;2022-08-19T00:37:23;19.50;99.90
27633;DHT22;15046;50.930;13.334;2022-08-19T00:39:51;19.60;99.90
27633;DHT22;15046;50.930;13.334;2022-08-19T00:42:18;19.60;99.90
27633;DHT22;15046;50.930;13.334;2022-08-19T00:44:44;19.60;99.90
27633;DHT22;15046;50.930;13.334;2022-08-19T00:47:10;19.60;99.90
27633;DHT22;15046;50.930;13.334;2022-08-19T00:49:45;19.60;99.90
27633;DHT22;15046;50.930;13.334;2022-08-19T00:52:32;19.60;99.90
27633;DHT22;15046;50.930;13.334;2022-08-19T00:54:59;19.60;99.90
27633;DHT22;15046;50.930;13.334;2022-08-19T00:57:34;19.60;99.90
27633;DHT22;15046;50.930;13.334;2022-08-19T01:00:01;19.60;99.90
27633;DHT22;15046;50.930;13.334;2022-08-19T01:02:28;19.60;99.90
27633;DHT22;15046;50.930;13.334;2022-08-19T01:04:55;19.60;99.90
27633;DHT22;15046;50.930;13.334;2022-08-19T01:07:21;19.60;99.90
27633;DHT22;15046;50.930;13.334;2022-08-19T01:09:47;19.60;99.90
27633;DHT22;15046;50.930;13.334;2022-08-19T01:12:13;19.60;99.90
27633;DHT22;15046;50.930;13.334;2022-08-19T01:14:40;19.60;99.90
27633;DHT22;15046;50.930;13.334;2022-08-19T01:17:09;19.60;99.90
27633;DHT22;15046;50.930;13.334;2022-08-19T01:19:39;19.60;99.90
27633;DHT22;15046;50.930;13.334;2022-08-19T01:22:15;19.60;99.90
27633;DHT22;15046;50.930;13.334;2022-08-19T01:24:41;19.60;99.90
27633;DHT22;15046;50.930;13.334;2022-08-19T01:27:07;19.50;99.90
27633;DHT22;15046;50.930;13.334;2022-08-19T01:29:38;19.60;99.90
27633;DHT22;15046;50.930;13.334;2022-08-19T01:32:04;19.60;99.90
27633;DHT22;15046;50.930;13.334;2022-08-19T01:34:30;19.60;99.90
27633;DHT22;15046;50.930;13.334;2022-08-19T01:36:55;19.50;99.90
27633;DHT22;15046;50.930;13.334;2022-08-19T01:39:24;19.60;99.90
27633;DHT22;15046;50.930;13.334;2022-08-19T01:41:50;19.60;99.90
27633;DHT22;15046;50.930;13.334;2022-08-19T01:44:19;19.60;99.90
27633;DHT22;15046;50.930;13.334;2022-08-19T01:46:49;19.60;99.90
27633;DHT22;15046;50.930;13.334;2022-08-19T01:49:17;19.50;99.90
27633;DHT22;15046;50.930;13.334;2022-08-19T01:51:43;19.50;99.90
27633;DHT22;15046;50.930;13.334;2022-08-19T01:54:12;19.50;99.90
27633;DHT22;15046;50.930;13.334;2022-08-19T01:56:38;19.50;99.90
27633;DHT22;15046;50.930;13.334;2022-08-19T01:59:10;19.50;99.90
27633;DHT22;15046;50.930;13.334;2022-08-19T02:01:37;19.50;99.90
27633;DHT22;15046;50.930;13.334;2022-08-19T02:04:03;19.50;99.90
27633;DHT22;15046;50.930;13.334;2022-08-19T02:06:29;19.50;99.90
27633;DHT22;15046;50.930;13.334;2022-08-19T02:08:55;19.50;99.90
27633;DHT22;15046;50.930;13.334;2022-08-19T02:11:27;19.50;99.90
27633;DHT22;15046;50.930;13.334;2022-08-19T02:13:55;19.50;99.90
27633;DHT22;15046;50.930;13.334;2022-08-19T02:16:21;19.50;99.90
27633;DHT22;15046;50.930;13.334;2022-08-19T02:18:47;19.50;99.90
27633;DHT22;15046;50.930;13.334;2022-08-19T02:21:17;19.50;99.90
27633;DHT22;15046;50.930;13.334;2022-08-19T02:23:44;19.50;99.90
27633;DHT22;15046;50.930;13.334;2022-08-19T02:26:10;19.50;99.90
27633;DHT22;15046;50.930;13.334;2022-08-19T02:28:36;19.50;99.90
27633;DHT22;15046;50.930;13.334;2022-08-19T02:31:03;19.50;99.90
27633;DHT22;15046;50.930;13.334;2022-08-19T02:33:30;19.40;99.90
27633;DHT22;15046;50.930;13.334;2022-08-19T02:35:55;19.40;99.90
27633;DHT22;15046;50.930;13.334;2022-08-19T02:38:21;19.50;99.90
27633;DHT22;15046;50.930;13.334;2022-08-19T02:41:01;19.50;99.90
27633;DHT22;15046;50.930;13.334;2022-08-19T02:43:29;19.50;99.90
27633;DHT22;15046;50.930;13.334;2022-08-19T02:45:55;19.50;99.90
27633;DHT22;15046;50.930;13.334;2022-08-19T02:48:23;19.50;99.90
27633;DHT22;15046;50.930;13.334;2022-08-19T02:50:51;19.50;99.90
27633;DHT22;15046;50.930;13.334;2022-08-19T02:53:25;19.50;99.90
27633;DHT22;15046;50.930;13.334;2022-08-19T02:55:51;19.50;99.90
27633;DHT22;15046;50.930;13.334;2022-08-19T02:58:18;19.50;99.90
27633;DHT22;15046;50.930;13.334;2022-08-19T03:00:47;19.60;99.90
27633;DHT22;15046;50.930;13.334;2022-08-19T03:03:14;19.60;99.90
27633;DHT22;15046;50.930;13.334;2022-08-19T03:05:41;19.60;99.90
27633;DHT22;15046;50.930;13.334;2022-08-19T03:08:08;19.60;99.90
27633;DHT22;15046;50.930;13.334;2022-08-19T03:10:44;19.60;99.90
27633;DHT22;15046;50.930;13.334;2022-08-19T03:13:15;19.60;99.90
27633;DHT22;15046;50.930;13.334;2022-08-19T03:15:45;19.60;99.90
27633;DHT22;15046;50.930;13.334;2022-08-19T03:18:12;19.60;99.90
27633;DHT22;15046;50.930;13.334;2022-08-19T03:20:42;19.60;99.90
27633;DHT22;15046;50.930;13.334;2022-08-19T03:23:09;19.70;99.90
27633;DHT22;15046;50.930;13.334;2022-08-19T03:25:43;19.60;99.90
27633;DHT22;15046;50.930;13.334;2022-08-19T03:28:11;19.60;99.90
27633;DHT22;15046;50.930;13.334;2022-08-19T03:30:38;19.60;99.90
27633;DHT22;15046;50.930;13.334;2022-08-19T03:33:09;19.60;99.90
27633;DHT22;15046;50.930;13.334;2022-08-19T03:35:35;19.60;99.90
27633;DHT22;15046;50.930;13.334;2022-08-19T03:38:05;19.60;99.90
27633;DHT22;15046;50.930;13.334;2022-08-19T03:40:32;19.60;99.90
27633;DHT22;15046;50.930;13.334;2022-08-19T03:43:01;19.60;99.90
27633;DHT22;15046;50.930;13.334;2022-08-19T03:45:27;19.60;99.90
27633;DHT22;15046;50.930;13.334;2022-08-19T03:47:53;19.60;99.90
27633;DHT22;15046;50.930;13.334;2022-08-19T03:50:19;19.60;99.90
27633;DHT22;15046;50.930;13.334;2022-08-19T03:52:50;19.60;99.90
27633;DHT22;15046;50.930;13.334;2022-08-19T03:55:17;19.70;99.90
27633;DHT22;15046;50.930;13.334;2022-08-19T03:57:44;19.70;99.90
27633;DHT22;15046;50.930;13.334;2022-08-19T04:00:11;19.70;99.90
27633;DHT22;15046;50.930;13.334;2022-08-19T04:02:37;19.70;99.90
27633;DHT22;15046;50.930;13.334;2022-08-19T04:05:04;19.70;99.90
27633;DHT22;15046;50.930;13.334;2022-08-19T04:07:30;19.70;99.90
27633;DHT22;15046;50.930;13.334;2022-08-19T04:09:56;19.70;99.90
27633;DHT22;15046;50.930;13.334;2022-08-19T04:12:23;19.60;99.90
27633;DHT22;15046;50.930;13.334;2022-08-19T04:14:49;19.60;99.90
27633;DHT22;15046;50.930;13.334;2022-08-19T04:17:15;19.60;99.90
27633;DHT22;15046;50.930;13.334;2022-08-19T04:19:41;19.60;99.90
27633;DHT22;15046;50.930;13.334;2022-08-19T04:22:08;19.60;99.90
27633;DHT22;15046;50.930;13.334;2022-08-19T04:24:36;19.60;99.90
27633;DHT22;15046;50.930;13.334;2022-08-19T04:27:03;19.60;99.90
27633;DHT22;15046;50.930;13.334;2022-08-19T04:29:31;19.60;99.90
27633;DHT22;15046;50.930;13.334;2022-08-19T04:31:57;19.60;99.90
27633;DHT22;15046;50.930;13.334;2022-08-19T04:34:26;19.60;99.90
27633;DHT22;15046;50.930;13.334;2022-08-19T04:36:55;19.60;99.90
27633;DHT22;15046;50.930;13.334;2022-08-19T04:39:25;19.60;99.90
27633;DHT22;15046;50.930;13.334;2022-08-19T04:42:12;19.60;99.90
27633;DHT22;15046;50.930;13.334;2022-08-19T04:44:57;19.60;99.90
27633;DHT22;15046;50.930;13.334;2022-08-19T04:47:24;19.70;99.90
27633;DHT22;15046;50.930;13.334;2022-08-19T04:49:50;19.70;99.90
27633;DHT22;15046;50.930;13.334;2022-08-19T04:52:16;19.70;99.90
27633;DHT22;15046;50.930;13.334;2022-08-19T04:54:41;19.70;99.90
27633;DHT22;15046;50.930;13.334;2022-08-19T04:57:09;19.70;99.90
27633;DHT22;15046;50.930;13.334;2022-08-19T04:59:36;19.70;99.90
27633;DHT22;15046;50.930;13.334;2022-08-19T05:02:03;19.70;99.90
27633;DHT22;15046;50.930;13.334;2022-08-19T05:04:29;19.70;99.90
27633;DHT22;15046;50.930;13.334;2022-08-19T05:06:57;19.70;99.90
27633;DHT22;15046;50.930;13.334;2022-08-19T05:09:23;19.70;99.90
27633;DHT22;15046;50.930;13.334;2022-08-19T05:11:48;19.70;99.90
27633;DHT22;15046;50.930;13.334;2022-08-19T05:14:16;19.70;99.90
27633;DHT22;15046;50.930;13.334;2022-08-19T05:16:42;19.70;99.90
27633;DHT22;15046;50.930;13.334;2022-08-19T05:19:08;19.70;99.90
27633;DHT22;15046;50.930;13.334;2022-08-19T05:21:52;19.70;99.90
27633;DHT22;15046;50.930;13.334;2022-08-19T05:24:37;19.70;99.90
27633;DHT22;15046;50.930;13.334;2022-08-19T05:27:03;19.70;99.90
27633;DHT22;15046;50.930;13.334;2022-08-19T05:29:31;19.70;99.90
27633;DHT22;15046;50.930;13.334;2022-08-19T05:31:58;19.70;99.90
27633;DHT22;15046;50.930;13.334;2022-08-19T05:34:25;19.70;99.90
27633;DHT22;15046;50.930;13.334;2022-08-19T05:36:54;19.70;99.90
27633;DHT22;15046;50.930;13.334;2022-08-19T05:39:28;19.70;99.90
27633;DHT22;15046;50.930;13.334;2022-08-19T05:42:12;19.70;99.90
27633;DHT22;15046;50.930;13.334;2022-08-19T05:44:41;19.70;99.90
27633;DHT22;15046;50.930;13.334;2022-08-19T05:47:12;19.70;99.90
27633;DHT22;15046;50.930;13.334;2022-08-19T05:49:38;19.70;99.90
27633;DHT22;15046;50.930;13.334;2022-08-19T05:52:07;19.70;99.90
27633;DHT22;15046;50.930;13.334;2022-08-19T05:54:34;19.70;99.90
27633;DHT22;15046;50.930;13.334;2022-08-19T05:57:02;19.80;99.90
27633;DHT22;15046;50.930;13.334;2022-08-19T05:59:28;19.80;99.90
27633;DHT22;15046;50.930;13.334;2022-08-19T06:01:54;19.80;99.90
27633;DHT22;15046;50.930;13.334;2022-08-19T06:04:21;19.80;99.90
27633;DHT22;15046;50.930;13.334;2022-08-19T06:06:49;19.80;99.90
27633;DHT22;15046;50.930;13.334;2022-08-19T06:09:15;19.80;99.90
27633;DHT22;15046;50.930;13.334;2022-08-19T06:11:50;19.80;99.90
27633;DHT22;15046;50.930;13.334;2022-08-19T06:14:22;19.80;99.90
27633;DHT22;15046;50.930;13.334;2022-08-19T06:16:49;19.70;99.90
27633;DHT22;15046;50.930;13.334;2022-08-19T06:19:19;19.70;99.90
27633;DHT22;15046;50.930;13.334;2022-08-19T06:21:47;19.80;99.90
27633;DHT22;15046;50.930;13.334;2022-08-19T06:24:20;19.80;99.90
27633;DHT22;15046;50.930;13.334;2022-08-19T06:26:49;19.80;99.90
27633;DHT22;15046;50.930;13.334;2022-08-19T06:29:16;19.80;99.90
27633;DHT22;15046;50.930;13.334;2022-08-19T06:31:45;19.80;99.90
27633;DHT22;15046;50.930;13.334;2022-08-19T06:34:12;19.80;99.90
27633;DHT22;15046;50.930;13.334;2022-08-19T06:36:41;19.90;99.90
27633;DHT22;15046;50.930;13.334;2022-08-19T06:39:14;19.90;99.90
27633;DHT22;15046;50.930;13.334;2022-08-19T06:41:44;19.90;99.90
27633;DHT22;15046;50.930;13.334;2022-08-19T06:44:11;19.90;99.90
27633;DHT22;15046;50.930;13.334;2022-08-19T06:46:38;19.90;99.90
27633;DHT22;15046;50.930;13.334;2022-08-19T06:49:04;19.90;99.90
27633;DHT22;15046;50.930;13.334;2022-08-19T06:51:30;19.90;99.90
27633;DHT22;15046;50.930;13.334;2022-08-19T06:53:58;19.90;99.90
27633;DHT22;15046;50.930;13.334;2022-08-19T06:56:30;19.90;99.90
27633;DHT22;15046;50.930;13.334;2022-08-19T06:59:05;19.90;99.90
27633;DHT22;15046;50.930;13.334;2022-08-19T07:01:39;19.90;99.90
27633;DHT22;15046;50.930;13.334;2022-08-19T07:04:09;19.90;99.90
27633;DHT22;15046;50.930;13.334;2022-08-19T07:06:35;19.90;99.90
27633;DHT22;15046;50.930;13.334;2022-08-19T07:09:04;19.90;99.90
27633;DHT22;15046;50.930;13.334;2022-08-19T07:11:30;19.80;99.90
27633;DHT22;15046;50.930;13.334;2022-08-19T07:13:56;19.90;99.90
27633;DHT22;15046;50.930;13.334;2022-08-19T07:16:22;19.90;99.90
27633;DHT22;15046;50.930;13.334;2022-08-19T07:18:49;19.90;99.90
27633;DHT22;15046;50.930;13.334;2022-08-19T07:21:18;20.00;99.90
27633;DHT22;15046;50.930;13.334;2022-08-19T07:23:45;20.00;99.90
27633;DHT22;15046;50.930;13.334;2022-08-19T07:26:17;20.10;99.90
27633;DHT22;15046;50.930;13.334;2022-08-19T07:28:45;20.00;99.90
27633;DHT22;15046;50.930;13.334;2022-08-19T07:31:14;20.00;99.90
27633;DHT22;15046;50.930;13.334;2022-08-19T07:33:40;20.00;99.90
27633;DHT22;15046;50.930;13.334;2022-08-19T07:36:09;20.00;99.90
27633;DHT22;15046;50.930;13.334;2022-08-19T07:38:37;20.10;99.90
27633;DHT22;15046;50.930;13.334;2022-08-19T07:41:05;20.10;99.90
27633;DHT22;15046;50.930;13.334;2022-08-19T07:43:31;20.10;99.90
27633;DHT22;15046;50.930;13.334;2022-08-19T07:45:57;20.00;99.90
27633;DHT22;15046;50.930;13.334;2022-08-19T07:48:24;19.80;99.90
27633;DHT22;15046;50.930;13.334;2022-08-19T07:50:53;19.70;99.90
27633;DHT22;15046;50.930;13.334;2022-08-19T07:53:21;19.70;99.90
27633;DHT22;15046;50.930;13.334;2022-08-19T07:55:47;19.60;99.90
27633;DHT22;15046;50.930;13.334;2022-08-19T07:58:16;19.50;99.90
27633;DHT22;15046;50.930;13.334;2022-08-19T08:00:43;19.50;99.90
27633;DHT22;15046;50.930;13.334;2022-08-19T08:03:11;19.50;99.90
27633;DHT22;15046;50.930;13.334;2022-08-19T08:05:37;19.50;99.90
27633;DHT22;15046;50.930;13.334;2022-08-19T08:08:21;19.40;99.90
27633;DHT22;15046;50.930;13.334;2022-08-19T08:11:04;19.40;99.90
27633;DHT22;15046;50.930;13.334;2022-08-19T08:13:30;19.30;99.90
27633;DHT22;15046;50.930;13.334;2022-08-19T08:15:56;19.40;99.90
27633;DHT22;15046;50.930;13.334;2022-08-19T08:18:24;19.50;99.90
27633;DHT22;15046;50.930;13.334;2022-08-19T08:20:50;19.60;99.90
27633;DHT22;15046;50.930;13.334;2022-08-19T08:23:16;19.80;99.90
27633;DHT22;15046;50.930;13.334;2022-08-19T08:25:48;20.00;99.90
27633;DHT22;15046;50.930;13.334;2022-08-19T08:28:15;20.10;99.90
27633;DHT22;15046;50.930;13.334;2022-08-19T08:30:41;20.20;99.90
27633;DHT22;15046;50.930;13.334;2022-08-19T08:33:09;20.20;99.90
27633;DHT22;15046;50.930;13.334;2022-08-19T08:35:35;20.20;99.90
27633;DHT22;15046;50.930;13.334;2022-08-19T08:38:02;20.20;99.90
27633;DHT22;15046;50.930;13.334;2022-08-19T08:40:39;20.20;99.90
27633;DHT22;15046;50.930;13.334;2022-08-19T08:43:33;20.10;99.90
27633;DHT22;15046;50.930;13.334;2022-08-19T08:46:00;20.10;99.90
27633;DHT22;15046;50.930;13.334;2022-08-19T08:51:42;20.00;99.90
27633;DHT22;15046;50.930;13.334;2022-08-19T08:54:11;20.00;99.90
27633;DHT22;15046;50.930;13.334;2022-08-19T08:56:39;20.10;99.90
27633;DHT22;15046;50.930;13.334;2022-08-19T08:59:16;20.10;99.90
27633;DHT22;15046;50.930;13.334;2022-08-19T09:01:45;20.10;99.90
27633;DHT22;15046;50.930;13.334;2022-08-19T09:04:12;20.10;99.90
27633;DHT22;15046;50.930;13.334;2022-08-19T09:09:40;20.20;99.90
27633;DHT22;15046;50.930;13.334;2022-08-19T09:12:38;20.30;99.90
27633;DHT22;15046;50.930;13.334;2022-08-19T09:15:08;20.20;99.90
27633;DHT22;15046;50.930;13.334;2022-08-19T09:17:37;20.30;99.90
27633;DHT22;15046;50.930;13.334;2022-08-19T09:20:20;20.30;99.90
27633;DHT22;15046;50.930;13.334;2022-08-19T09:22:47;20.30;99.90
27633;DHT22;15046;50.930;13.334;2022-08-19T09:25:17;20.30;99.90
27633;DHT22;15046;50.930;13.334;2022-08-19T09:27:44;20.40;99.90
27633;DHT22;15046;50.930;13.334;2022-08-19T09:30:18;20.50;99.90
27633;DHT22;15046;50.930;13.334;2022-08-19T09:32:44;20.60;99.90
27633;DHT22;15046;50.930;13.334;2022-08-19T09:35:11;20.70;99.90
27633;DHT22;15046;50.930;13.334;2022-08-19T09:37:38;20.80;99.90
27633;DHT22;15046;50.930;13.334;2022-08-19T09:40:04;20.80;99.90
27633;DHT22;15046;50.930;13.334;2022-08-19T09:42:30;20.90;99.90
27633;DHT22;15046;50.930;13.334;2022-08-19T09:44:56;21.00;99.90
27633;DHT22;15046;50.930;13.334;2022-08-19T09:47:22;21.00;99.90
27633;DHT22;15046;50.930;13.334;2022-08-19T09:49:48;21.00;99.90
27633;DHT22;15046;50.930;13.334;2022-08-19T09:52:16;20.80;99.90
27633;DHT22;15046;50.930;13.334;2022-08-19T09:54:43;20.70;99.90
27633;DHT22;15046;50.930;13.334;2022-08-19T09:57:08;20.70;99.90
27633;DHT22;15046;50.930;13.334;2022-08-19T09:59:34;20.70;99.90
27633;DHT22;15046;50.930;13.334;2022-08-19T10:02:00;20.80;99.90
27633;DHT22;15046;50.930;13.334;2022-08-19T10:04:26;20.90;99.90
27633;DHT22;15046;50.930;13.334;2022-08-19T10:07:12;21.00;99.90
27633;DHT22;15046;50.930;13.334;2022-08-19T10:09:38;21.10;99.90
27633;DHT22;15046;50.930;13.334;2022-08-19T10:12:05;21.10;99.90
27633;DHT22;15046;50.930;13.334;2022-08-19T10:14:31;21.20;99.90
27633;DHT22;15046;50.930;13.334;2022-08-19T10:16:58;21.80;99.90
27633;DHT22;15046;50.930;13.334;2022-08-19T10:19:26;22.80;99.90
27633;DHT22;15046;50.930;13.334;2022-08-19T10:21:58;23.40;99.90
27633;DHT22;15046;50.930;13.334;2022-08-19T10:24:24;24.10;99.90
27633;DHT22;15046;50.930;13.334;2022-08-19T10:26:51;24.30;99.90
27633;DHT22;15046;50.930;13.334;2022-08-19T10:29:17;24.20;99.90
27633;DHT22;15046;50.930;13.334;2022-08-19T10:31:43;24.00;99.90
27633;DHT22;15046;50.930;13.334;2022-08-19T10:34:08;24.00;99.90
27633;DHT22;15046;50.930;13.334;2022-08-19T10:36:36;23.70;99.90
27633;DHT22;15046;50.930;13.334;2022-08-19T10:39:09;23.70;99.90
27633;DHT22;15046;50.930;13.334;2022-08-19T10:41:37;23.80;99.90
27633;DHT22;15046;50.930;13.334;2022-08-19T10:44:06;23.90;99.90
27633;DHT22;15046;50.930;13.334;2022-08-19T10:46:36;24.30;99.90
27633;DHT22;15046;50.930;13.334;2022-08-19T10:49:04;26.00;99.90
27633;DHT22;15046;50.930;13.334;2022-08-19T10:51:31;27.30;99.90
27633;DHT22;15046;50.930;13.334;2022-08-19T10:54:16;27.10;99.90
27633;DHT22;15046;50.930;13.334;2022-08-19T10:56:42;26.30;99.90
27633;DHT22;15046;50.930;13.334;2022-08-19T10:59:23;25.60;99.90
27633;DHT22;15046;50.930;13.334;2022-08-19T11:01:50;25.00;99.90
27633;DHT22;15046;50.930;13.334;2022-08-19T11:04:18;24.70;99.90
27633;DHT22;15046;50.930;13.334;2022-08-19T11:06:45;24.40;99.90
27633;DHT22;15046;50.930;13.334;2022-08-19T11:09:18;24.10;99.90
27633;DHT22;15046;50.930;13.334;2022-08-19T11:11:44;23.90;99.90
27633;DHT22;15046;50.930;13.334;2022-08-19T11:14:13;23.80;99.90
27633;DHT22;15046;50.930;13.334;2022-08-19T11:16:41;23.70;99.90
27633;DHT22;15046;50.930;13.334;2022-08-19T11:19:09;23.50;99.90
27633;DHT22;15046;50.930;13.334;2022-08-19T11:21:41;23.30;99.90
27633;DHT22;15046;50.930;13.334;2022-08-19T11:24:10;23.10;99.90
27633;DHT22;15046;50.930;13.334;2022-08-19T11:26:38;23.00;99.90
27633;DHT22;15046;50.930;13.334;2022-08-19T11:29:04;22.80;99.90
27633;DHT22;15046;50.930;13.334;2022-08-19T11:31:34;22.50;99.90
27633;DHT22;15046;50.930;13.334;2022-08-19T11:34:05;22.40;99.90
27633;DHT22;15046;50.930;13.334;2022-08-19T11:36:31;22.30;99.90
27633;DHT22;15046;50.930;13.334;2022-08-19T11:39:01;22.20;99.90
27633;DHT22;15046;50.930;13.334;2022-08-19T11:41:27;22.10;99.90
27633;DHT22;15046;50.930;13.334;2022-08-19T11:43:53;22.00;99.90
27633;DHT22;15046;50.930;13.334;2022-08-19T11:46:22;21.90;99.90
27633;DHT22;15046;50.930;13.334;2022-08-19T11:48:49;21.80;99.90
27633;DHT22;15046;50.930;13.334;2022-08-19T11:51:19;21.80;99.90
27633;DHT22;15046;50.930;13.334;2022-08-19T11:53:45;21.70;99.90
27633;DHT22;15046;50.930;13.334;2022-08-19T11:56:12;21.70;99.90
27633;DHT22;15046;50.930;13.334;2022-08-19T11:58:38;21.60;99.90
27633;DHT22;15046;50.930;13.334;2022-08-19T12:01:11;21.60;99.90
27633;DHT22;15046;50.930;13.334;2022-08-19T12:03:38;21.50;99.90
27633;DHT22;15046;50.930;13.334;2022-08-19T12:06:09;21.40;99.90
27633;DHT22;15046;50.930;13.334;2022-08-19T12:08:37;21.40;99.90
27633;DHT22;15046;50.930;13.334;2022-08-19T12:11:04;21.30;99.90
27633;DHT22;15046;50.930;13.334;2022-08-19T12:13:34;21.20;99.90
27633;DHT22;15046;50.930;13.334;2022-08-19T12:15:59;21.10;99.90
27633;DHT22;15046;50.930;13.334;2022-08-19T12:18:26;21.10;99.90
27633;DHT22;15046;50.930;13.334;2022-08-19T12:20:53;21.10;99.90
27633;DHT22;15046;50.930;13.334;2022-08-19T12:23:21;21.00;99.90
27633;DHT22;15046;50.930;13.334;2022-08-19T12:25:49;21.00;99.90
27633;DHT22;15046;50.930;13.334;2022-08-19T12:28:19;20.90;99.90
27633;DHT22;15046;50.930;13.334;2022-08-19T12:30:46;20.90;99.90
27633;DHT22;15046;50.930;13.334;2022-08-19T12:33:11;20.90;99.90
27633;DHT22;15046;50.930;13.334;2022-08-19T12:35:43;20.90;99.90
27633;DHT22;15046;50.930;13.334;2022-08-19T12:38:13;20.90;99.90
27633;DHT22;15046;50.930;13.334;2022-08-19T12:40:40;20.90;99.90
27633;DHT22;15046;50.930;13.334;2022-08-19T12:43:07;20.90;99.90
27633;DHT22;15046;50.930;13.334;2022-08-19T12:45:33;21.00;99.90
27633;DHT22;15046;50.930;13.334;2022-08-19T12:47:59;20.90;99.90
27633;DHT22;15046;50.930;13.334;2022-08-19T12:50:25;20.90;99.90
27633;DHT22;15046;50.930;13.334;2022-08-19T12:52:51;20.90;99.90
27633;DHT22;15046;50.930;13.334;2022-08-19T12:55:17;20.90;99.90
27633;DHT22;15046;50.930;13.334;2022-08-19T12:57:44;21.00;99.90
27633;DHT22;15046;50.930;13.334;2022-08-19T13:00:14;21.00;99.90
27633;DHT22;15046;50.930;13.334;2022-08-19T13:02:44;21.00;99.90
27633;DHT22;15046;50.930;13.334;2022-08-19T13:05:13;20.90;99.90
27633;DHT22;15046;50.930;13.334;2022-08-19T13:07:41;20.80;99.90
27633;DHT22;15046;50.930;13.334;2022-08-19T13:10:11;20.80;99.90
27633;DHT22;15046;50.930;13.334;2022-08-19T13:12:38;20.80;99.90
27633;DHT22;15046;50.930;13.334;2022-08-19T13:15:04;20.80;99.90
27633;DHT22;15046;50.930;13.334;2022-08-19T13:17:30;20.70;99.90
27633;DHT22;15046;50.930;13.334;2022-08-19T13:19:58;20.70;99.90
27633;DHT22;15046;50.930;13.334;2022-08-19T13:22:24;20.60;99.90
27633;DHT22;15046;50.930;13.334;2022-08-19T13:24:50;20.60;99.90
27633;DHT22;15046;50.930;13.334;2022-08-19T13:27:16;20.60;99.90
27633;DHT22;15046;50.930;13.334;2022-08-19T13:29:42;20.60;99.90
27633;DHT22;15046;50.930;13.334;2022-08-19T13:32:26;20.60;99.90
27633;DHT22;15046;50.930;13.334;2022-08-19T13:35:11;20.60;99.90
27633;DHT22;15046;50.930;13.334;2022-08-19T13:37:37;20.70;99.90
27633;DHT22;15046;50.930;13.334;2022-08-19T13:40:16;20.70;99.90
27633;DHT22;15046;50.930;13.334;2022-08-19T13:42:45;20.70;99.90
27633;DHT22;15046;50.930;13.334;2022-08-19T13:45:13;20.70;99.90
27633;DHT22;15046;50.930;13.334;2022-08-19T13:47:41;20.80;99.90
27633;DHT22;15046;50.930;13.334;2022-08-19T13:50:11;20.80;99.90
27633;DHT22;15046;50.930;13.334;2022-08-19T13:52:38;20.90;99.90
27633;DHT22;15046;50.930;13.334;2022-08-19T13:55:05;21.00;99.90
27633;DHT22;15046;50.930;13.334;2022-08-19T13:57:31;21.00;99.90
27633;DHT22;15046;50.930;13.334;2022-08-19T14:00:00;21.00;99.90
27633;DHT22;15046;50.930;13.334;2022-08-19T14:02:26;21.00;99.90
27633;DHT22;15046;50.930;13.334;2022-08-19T14:04:52;20.90;99.90
27633;DHT22;15046;50.930;13.334;2022-08-19T14:07:18;21.00;99.90
27633;DHT22;15046;50.930;13.334;2022-08-19T14:09:44;21.00;99.90
27633;DHT22;15046;50.930;13.334;2022-08-19T14:12:10;21.00;99.90
27633;DHT22;15046;50.930;13.334;2022-08-19T14:14:37;21.00;99.90
27633;DHT22;15046;50.930;13.334;2022-08-19T14:17:07;21.10;99.90
27633;DHT22;15046;50.930;13.334;2022-08-19T14:19:33;21.10;99.90
27633;DHT22;15046;50.930;13.334;2022-08-19T14:21:59;21.20;99.90
27633;DHT22;15046;50.930;13.334;2022-08-19T14:24:25;21.30;99.90
27633;DHT22;15046;50.930;13.334;2022-08-19T14:26:51;21.30;99.90
27633;DHT22;15046;50.930;13.334;2022-08-19T14:29:16;21.20;99.90
27633;DHT22;15046;50.930;13.334;2022-08-19T14:31:42;21.20;99.90
27633;DHT22;15046;50.930;13.334;2022-08-19T14:34:09;21.20;99.90
27633;DHT22;15046;50.930;13.334;2022-08-19T14:36:36;21.20;99.90
27633;DHT22;15046;50.930;13.334;2022-08-19T14:39:03;21.10;99.90
27633;DHT22;15046;50.930;13.334;2022-08-19T14:41:29;21.10;99.90
27633;DHT22;15046;50.930;13.334;2022-08-19T14:43:56;21.10;99.90
27633;DHT22;15046;50.930;13.334;2022-08-19T14:46:25;21.10;99.90
27633;DHT22;15046;50.930;13.334;2022-08-19T14:48:53;21.20;99.90
27633;DHT22;15046;50.930;13.334;2022-08-19T14:51:23;21.30;99.90
27633;DHT22;15046;50.930;13.334;2022-08-19T14:53:50;21.30;99.90
27633;DHT22;15046;50.930;13.334;2022-08-19T14:56:19;21.40;99.90
27633;DHT22;15046;50.930;13.334;2022-08-19T14:58:45;21.50;99.90
27633;DHT22;15046;50.930;13.334;2022-08-19T15:01:12;21.60;99.90
27633;DHT22;15046;50.930;13.334;2022-08-19T15:03:39;21.60;99.90
27633;DHT22;15046;50.930;13.334;2022-08-19T15:06:08;21.70;99.90
27633;DHT22;15046;50.930;13.334;2022-08-19T15:08:36;21.80;99.90
27633;DHT22;15046;50.930;13.334;2022-08-19T15:11:09;21.70;99.90
27633;DHT22;15046;50.930;13.334;2022-08-19T15:13:35;21.60;99.90
27633;DHT22;15046;50.930;13.334;2022-08-19T15:16:01;21.50;99.90
27633;DHT22;15046;50.930;13.334;2022-08-19T15:18:27;21.40;99.90
27633;DHT22;15046;50.930;13.334;2022-08-19T15:20:53;21.30;99.90
27633;DHT22;15046;50.930;13.334;2022-08-19T15:23:20;21.30;99.90
27633;DHT22;15046;50.930;13.334;2022-08-19T15:25:47;21.20;99.90
27633;DHT22;15046;50.930;13.334;2022-08-19T15:28:13;21.10;99.90